HBBA/BJM METAR and TAF weather

Enter ICAO airport designator
Station Type Date Time Source
HBBA METAR 2018/07/21 18:00 UTC NOAA

HBBA 211800Z 00000KT 9000 FEW025 26/15 Q1015 NOSIG


Station Type Date Time Source
HBBA Decoded METAR 2018/07/21 18:00 UTC NOAA

Bujumbura, Burundi (HBBA) 03-19S 029-19E 783M
Jul 21, 2018 - 02:00 PM EDT / 2018.07.21 1800 UTC
Wind: Calm:0
Visibility: 5 mile(s):0
Sky conditions: mostly clear
Temperature: 78 F (26 C)
Dew Point: 59 F (15 C)
Relative Humidity: 50%
Pressure (altimeter): 29.97 in. Hg (1015 hPa)
ob: HBBA 211800Z 00000KT 9000 FEW025 26/15 Q1015 NOSIG
cycle: 18

Station Type Date Time Source
HBBA TAF 2018/07/21 18:54 UTC NOAA

TAF TAF HBBA 211700Z 2118/2224 00000KT CAVOK
BECMG2202/2204 36002KT 5000 HZ NSC
BECMG2207/2209 18015G25KT 8000 FEW035
BECMG2215/2217 18010KT CAVOK
BECMG2220/2222 00000KT CAVOK


Example: see airport list